Terminal Aerodrome Forecast
Issued by NWS

Home | Current Version | Previous Version | Text Only | Print | Product List | Glossary On
Versions: 1 2 3 4 5 6 7 8 9 10 11 12 13 14 15 16 17
000
FTUS46 KLOX 262335
TAFSBA
TAF
KSBA 262335Z 2700/2724 25017G25KT P6SM SCT200
     FM270100 32012KT P6SM SCT200 WS010/36035KT
     FM272000 26012G22KT P6SM SCT200=

USA.gov is the U.S. government's official web portal to all federal, state and local government web resources and services.